createdAt,value
2018-12-05T00:01:26.573Z,102080.13
2018-12-05T00:03:56.622Z,102079.27
2018-12-05T00:06:26.726Z,102079.98
2018-12-05T00:08:57.457Z,102089.30
2018-12-05T00:11:28.964Z,102082.47
2018-12-05T00:13:59.575Z,102087.53
2018-12-05T00:16:30.051Z,102084.91
2018-12-05T00:19:01.742Z,102075.97
2018-12-05T00:21:32.509Z,102077.21
2018-12-05T00:24:02.458Z,102079.30
2018-12-05T00:26:32.957Z,102080.06
2018-12-05T00:29:04.511Z,102080.45
2018-12-05T00:31:34.910Z,102084.27
2018-12-05T00:34:05.133Z,102081.28
2018-12-05T00:36:36.802Z,102089.36
2018-12-05T00:39:09.902Z,102093.58
2018-12-05T00:41:41.362Z,102091.88
2018-12-05T00:44:11.573Z,102095.25
2018-12-05T00:46:42.112Z,102098.57
2018-12-05T00:49:13.854Z,102088.40
2018-12-05T00:51:44.584Z,102087.06
2018-12-05T00:54:14.786Z,102086.19
2018-12-05T00:56:44.871Z,102087.41
2018-12-05T00:59:15.719Z,102093.02
2018-12-05T01:01:46.473Z,102088.85
2018-12-05T01:04:16.497Z,102083.77
2018-12-05T01:06:47.014Z,102087.10
2018-12-05T01:09:18.328Z,102083.23
2018-12-05T01:11:49.713Z,102084.53
2018-12-05T01:14:19.809Z,102087.98
2018-12-05T01:16:49.761Z,102085.00
2018-12-05T01:19:19.710Z,102084.64
2018-12-05T01:21:49.702Z,102089.34
2018-12-05T01:24:19.811Z,102088.89
2018-12-05T01:26:50.209Z,102094.45
2018-12-05T01:29:20.900Z,102097.45
2018-12-05T01:31:52.048Z,102106.84
2018-12-05T01:34:23.409Z,102097.00
2018-12-05T01:36:54.017Z,102097.91
2018-12-05T01:39:24.074Z,102101.23
2018-12-05T01:41:54.827Z,102100.79
2018-12-05T01:44:25.586Z,102102.11
2018-12-05T01:46:55.641Z,102098.66
2018-12-05T01:49:26.146Z,102101.22
2018-12-05T01:51:56.206Z,102105.83
2018-12-05T01:54:26.767Z,102105.38
2018-12-05T01:56:56.906Z,102109.19
2018-12-05T01:59:27.049Z,102118.19
2018-12-05T02:01:58.130Z,102107.46
2018-12-05T02:04:29.374Z,102115.05
2018-12-05T02:07:01.343Z,102113.30
2018-12-05T02:09:32.078Z,102112.81
2018-12-05T02:12:03.218Z,102113.88
2018-12-05T02:14:34.061Z,102115.06
2018-12-05T02:17:05.259Z,102113.80
2018-12-05T02:19:35.233Z,102118.34
2018-12-05T02:22:05.838Z,102113.98
2018-12-05T02:24:36.578Z,102115.30
2018-12-05T02:27:07.753Z,102117.33
2018-12-05T02:29:44.564Z,102119.03
2018-12-05T02:32:16.065Z,102110.88
2018-12-05T02:34:46.793Z,102117.25
2018-12-05T02:37:18.096Z,102116.30
2018-12-05T02:39:50.011Z,102121.40
2018-12-05T02:42:20.210Z,102119.96
2018-12-05T02:44:50.426Z,102122.14
2018-12-05T02:47:21.839Z,102123.81
2018-12-05T02:49:53.695Z,102123.31
2018-12-05T02:52:25.034Z,102125.95
2018-12-05T02:54:55.830Z,102120.39
2018-12-05T02:57:27.017Z,102119.44
2018-12-05T02:59:58.981Z,102117.28
2018-12-05T03:02:29.619Z,102118.98
2018-12-05T03:05:00.805Z,102119.67
2018-12-05T03:07:31.322Z,102123.04
2018-12-05T03:10:02.721Z,102121.63
2018-12-05T03:12:32.811Z,102123.33
2018-12-05T03:15:03.731Z,102132.67
2018-12-05T03:17:34.968Z,102127.91
2018-12-05T03:20:06.048Z,102130.41
2018-12-05T03:22:37.774Z,102121.83
2018-12-05T03:25:08.734Z,102123.98
2018-12-05T03:27:39.577Z,102120.10
2018-12-05T03:30:11.046Z,102112.26
2018-12-05T03:32:43.000Z,102107.47
2018-12-05T03:35:13.814Z,102109.23
2018-12-05T03:37:45.298Z,102107.07
2018-12-05T03:40:15.513Z,102102.73
2018-12-05T03:42:45.645Z,102094.67
2018-12-05T03:45:16.518Z,102100.53
2018-12-05T03:47:46.820Z,102104.57
2018-12-05T03:50:17.453Z,102108.20
2018-12-05T03:52:48.290Z,102111.57
2018-12-05T03:55:20.191Z,102125.09
2018-12-05T03:57:50.962Z,102120.73
2018-12-05T04:00:22.728Z,102118.24
2018-12-05T04:02:53.501Z,102128.37
2018-12-05T04:05:25.024Z,102129.70
2018-12-05T04:07:55.825Z,102134.02
2018-12-05T04:10:25.946Z,102144.59
2018-12-05T04:12:57.230Z,102144.20
2018-12-05T04:15:27.846Z,102141.26
2018-12-05T04:17:59.187Z,102147.78
2018-12-05T04:20:30.444Z,102145.33
2018-12-05T04:23:01.617Z,102142.20
2018-12-05T04:25:32.374Z,102149.02
2018-12-05T04:28:04.331Z,102148.14
2018-12-05T04:30:35.570Z,102148.11
2018-12-05T04:33:05.586Z,102144.63
2018-12-05T04:35:36.097Z,102145.14
2018-12-05T04:38:06.757Z,102138.09
2018-12-05T04:40:37.357Z,102136.41
2018-12-05T04:43:07.430Z,102132.42
2018-12-05T04:45:37.543Z,102129.84
2018-12-05T04:48:08.707Z,102137.55
2018-12-05T04:50:38.706Z,102135.45
2018-12-05T04:53:09.276Z,102140.52
2018-12-05T04:55:40.721Z,102137.03
2018-12-05T04:58:11.418Z,102142.55
2018-12-05T05:00:43.190Z,102141.73
2018-12-05T05:03:13.554Z,102151.16
2018-12-05T05:05:44.826Z,102152.05
2018-12-05T05:08:16.228Z,102156.16
2018-12-05T05:10:46.331Z,102154.95
2018-12-05T05:13:17.102Z,102159.95
2018-12-05T05:15:47.575Z,102153.97
2018-12-05T05:18:17.702Z,102155.73
2018-12-05T05:20:48.274Z,102154.69
2018-12-05T05:23:18.298Z,102159.61
2018-12-05T05:25:48.968Z,102153.97
2018-12-05T05:28:19.080Z,102152.73
2018-12-05T05:30:49.271Z,102148.48
2018-12-05T05:33:20.734Z,102151.16
2018-12-05T05:35:51.678Z,102147.41
2018-12-05T05:38:21.732Z,102146.14
2018-12-05T05:40:51.792Z,102140.52
2018-12-05T05:43:21.865Z,102145.45
2018-12-05T05:45:52.536Z,102143.52
2018-12-05T05:48:23.229Z,102143.84
2018-12-05T05:50:53.361Z,102141.59
2018-12-05T05:53:23.895Z,102149.66
2018-12-05T05:55:53.997Z,102152.56
2018-12-05T05:58:24.870Z,102162.62
2018-12-05T06:00:55.626Z,102157.36
2018-12-05T06:03:26.140Z,102154.45
2018-12-05T06:05:57.601Z,102155.95
2018-12-05T06:08:28.200Z,102154.19
2018-12-05T06:10:59.423Z,102159.84
2018-12-05T06:13:29.466Z,102159.48
2018-12-05T06:16:00.093Z,102169.98
2018-12-05T06:18:31.353Z,102173.77
2018-12-05T06:21:01.529Z,102168.61
2018-12-05T06:23:31.590Z,102170.23
2018-12-05T06:26:01.643Z,102165.96
2018-12-05T06:28:31.746Z,102161.72
2018-12-05T06:31:03.241Z,102159.07
2018-12-05T06:33:34.368Z,102156.49
2018-12-05T06:36:05.653Z,102159.98
2018-12-05T06:38:36.256Z,102158.65
2018-12-05T06:41:06.961Z,102155.25
2018-12-05T06:43:36.937Z,102155.93
2018-12-05T06:46:07.109Z,102159.67
2018-12-05T06:48:37.971Z,102158.58
2018-12-05T06:51:10.009Z,102158.72
2018-12-05T06:53:40.074Z,102162.50
2018-12-05T06:56:10.069Z,102153.23
2018-12-05T06:58:40.801Z,102153.98
2018-12-05T07:01:10.983Z,102161.62
2018-12-05T07:03:40.874Z,102164.59
2018-12-05T07:06:11.046Z,102167.12
2018-12-05T07:08:42.318Z,102169.64
2018-12-05T07:11:12.832Z,102174.83
2018-12-05T07:13:44.123Z,102170.27
2018-12-05T07:16:15.667Z,102171.05
2018-12-05T07:18:46.622Z,102170.70
2018-12-05T07:21:17.462Z,102171.68
2018-12-05T07:23:47.513Z,102169.44
2018-12-05T07:26:17.616Z,102170.72
2018-12-05T07:28:47.734Z,102166.89
2018-12-05T07:31:18.573Z,102167.74
2018-12-05T07:33:49.263Z,102169.34
2018-12-05T07:36:20.149Z,102161.41
2018-12-05T07:38:52.399Z,102164.32
2018-12-05T07:41:22.423Z,102163.98
2018-12-05T07:43:54.282Z,102157.95
2018-12-05T07:46:24.533Z,102154.97
2018-12-05T07:48:54.568Z,102152.70
2018-12-05T07:51:25.602Z,102143.77
2018-12-05T07:53:57.851Z,102149.16
2018-12-05T07:56:28.381Z,102150.39
2018-12-05T07:58:58.354Z,102153.24
2018-12-05T08:01:29.357Z,102149.87
2018-12-05T08:03:59.390Z,102147.52
2018-12-05T08:06:29.440Z,102146.09
2018-12-05T08:08:59.538Z,102145.88
2018-12-05T08:11:29.618Z,102137.39
2018-12-05T08:14:00.811Z,102132.75
2018-12-05T08:16:31.458Z,102131.99
2018-12-05T08:19:02.162Z,102132.44
2018-12-05T08:21:33.501Z,102124.50
2018-12-05T08:24:04.139Z,102121.50
2018-12-05T08:26:35.107Z,102129.09
2018-12-05T08:29:05.818Z,102127.88
2018-12-05T08:31:48.954Z,102138.16
2018-12-05T08:34:19.600Z,102140.23
2018-12-05T08:36:49.620Z,102139.83
2018-12-05T08:39:19.641Z,102144.52
2018-12-05T08:41:52.119Z,102140.98
2018-12-05T08:44:22.045Z,102145.20
2018-12-05T08:46:52.958Z,102143.77
2018-12-05T08:49:23.706Z,102141.23
2018-12-05T08:51:53.771Z,102142.97
2018-12-05T08:54:23.890Z,102138.56
2018-12-05T08:56:53.809Z,102145.45
2018-12-05T08:59:25.418Z,102142.81
2018-12-05T09:01:56.153Z,102144.10
2018-12-05T09:04:26.302Z,102148.88
2018-12-05T09:06:57.050Z,102151.05
2018-12-05T09:09:27.565Z,102155.83
2018-12-05T09:11:59.409Z,102157.11
2018-12-05T09:14:30.407Z,102157.12
2018-12-05T09:17:02.160Z,102155.41
2018-12-05T09:19:32.866Z,102151.13
2018-12-05T09:22:02.899Z,102148.97
2018-12-05T09:24:32.894Z,102140.84
2018-12-05T09:27:03.440Z,102146.39
2018-12-05T09:29:34.882Z,102142.97
2018-12-05T09:32:06.218Z,102142.09
2018-12-05T09:34:36.399Z,102146.77
2018-12-05T09:37:06.896Z,102147.20
2018-12-05T09:39:38.606Z,102141.69
2018-12-05T09:42:09.853Z,102139.06
2018-12-05T09:44:39.833Z,102133.52
2018-12-05T09:47:15.742Z,102136.06
2018-12-05T09:49:42.344Z,102129.16
2018-12-05T09:52:12.301Z,102126.52
2018-12-05T09:54:42.922Z,102135.20
2018-12-05T09:57:13.996Z,102134.84
2018-12-05T09:59:45.689Z,102125.86
2018-12-05T10:02:16.266Z,102125.85
2018-12-05T10:04:46.754Z,102117.27
2018-12-05T10:07:17.259Z,102121.94
2018-12-05T10:09:47.351Z,102116.77
2018-12-05T10:12:18.818Z,102109.88
2018-12-05T10:14:50.005Z,102106.47
2018-12-05T10:17:20.767Z,102106.11
2018-12-05T10:19:51.578Z,102098.31
2018-12-05T10:22:21.619Z,102096.64
2018-12-05T10:24:52.085Z,102084.20
2018-12-05T10:27:22.218Z,102091.55
2018-12-05T10:29:52.730Z,102074.80
2018-12-05T10:32:22.735Z,102069.66
2018-12-05T10:34:53.246Z,102076.47
2018-12-05T10:37:24.517Z,102076.09
2018-12-05T10:39:55.871Z,102079.50
2018-12-05T10:42:27.508Z,102073.54
2018-12-05T10:44:58.248Z,102063.16
2018-12-05T10:47:28.240Z,102068.73
2018-12-05T10:49:58.924Z,102072.17
2018-12-05T10:52:29.759Z,102064.40
2018-12-05T10:54:59.837Z,102056.69
2018-12-05T10:57:31.237Z,102057.13
2018-12-05T11:00:01.256Z,102049.86
2018-12-05T11:03:40.946Z,102048.56
2018-12-05T11:06:16.751Z,102054.14
2018-12-05T11:08:51.732Z,102051.14
2018-12-05T11:11:27.281Z,102038.23
2018-12-05T11:14:02.964Z,102039.09
2018-12-05T11:16:41.654Z,102040.32
2018-12-05T11:19:17.298Z,102032.61
2018-12-05T11:21:53.230Z,102027.45
2018-12-05T11:24:30.263Z,102030.02
2018-12-05T11:27:01.690Z,102028.68
2018-12-05T11:29:32.552Z,102024.31
2018-12-05T11:32:03.114Z,102021.75
2018-12-05T11:34:34.743Z,102029.06
2018-12-05T11:37:07.630Z,102016.11
2018-12-05T11:39:40.619Z,102008.41
2018-12-05T11:42:12.122Z,102004.09
2018-12-05T11:44:42.342Z,102008.36
2018-12-05T11:47:13.345Z,102008.08
2018-12-05T11:49:43.465Z,102008.94
2018-12-05T11:52:14.104Z,102004.70
2018-12-05T11:54:45.388Z,102005.56
2018-12-05T11:57:15.305Z,101997.02
2018-12-05T11:59:46.828Z,101994.78
2018-12-05T12:02:22.252Z,101991.36
2018-12-05T12:04:50.744Z,101993.02
2018-12-05T12:07:22.532Z,101991.34
2018-12-05T12:09:52.728Z,101988.44
2018-12-05T12:12:28.225Z,101989.70
2018-12-05T12:14:58.942Z,101975.52
2018-12-05T12:17:29.157Z,101978.09
2018-12-05T12:19:59.232Z,101974.20
2018-12-05T12:22:29.900Z,101964.86
2018-12-05T12:24:59.983Z,101962.30
2018-12-05T12:27:29.951Z,101951.08
2018-12-05T12:30:01.412Z,101951.08
2018-12-05T12:32:32.039Z,101948.89
2018-12-05T12:35:02.131Z,101947.67
2018-12-05T12:37:32.202Z,101941.63
2018-12-05T12:40:04.036Z,101944.61
2018-12-05T12:42:34.064Z,101943.27
2018-12-05T12:45:05.227Z,101930.83
2018-12-05T12:47:35.417Z,101938.02
2018-12-05T12:50:07.803Z,101930.27
2018-12-05T12:52:37.964Z,101930.24
2018-12-05T12:55:08.486Z,101928.14
2018-12-05T12:57:39.655Z,101923.83
2018-12-05T13:00:11.508Z,101926.48
2018-12-05T13:02:41.599Z,101919.20
2018-12-05T13:05:12.411Z,101917.57
2018-12-05T13:07:43.113Z,101918.48
2018-12-05T13:10:14.527Z,101912.88
2018-12-05T13:12:44.647Z,101909.54
2018-12-05T13:15:14.794Z,101911.72
2018-12-05T13:17:44.916Z,101907.08
2018-12-05T13:20:15.143Z,101907.58
2018-12-05T13:22:47.524Z,101904.15
2018-12-05T13:25:18.078Z,101904.12
2018-12-05T13:27:49.030Z,101898.52
2018-12-05T13:30:19.710Z,101902.05
2018-12-05T13:32:50.181Z,101896.53
2018-12-05T13:35:20.672Z,101887.55
2018-12-05T13:37:50.629Z,101879.02
2018-12-05T13:40:21.271Z,101881.57
2018-12-05T13:42:51.270Z,101869.56
2018-12-05T13:45:22.792Z,101868.69
2018-12-05T13:47:54.274Z,101866.11
2018-12-05T13:50:24.598Z,101860.09
2018-12-05T13:52:55.131Z,101856.17
2018-12-05T13:55:25.720Z,101847.97
2018-12-05T13:57:55.674Z,101848.85
2018-12-05T14:00:25.994Z,101846.75
2018-12-05T14:02:56.047Z,101848.94
2018-12-05T14:05:26.922Z,101847.23
2018-12-05T14:07:56.903Z,101842.17
2018-12-05T14:10:26.972Z,101850.37
2018-12-05T14:12:59.713Z,101843.58
2018-12-05T14:15:30.427Z,101843.61
2018-12-05T14:18:03.299Z,101838.52
2018-12-05T14:20:34.059Z,101844.09
2018-12-05T14:23:04.132Z,101840.30
2018-12-05T14:25:35.257Z,101839.46
2018-12-05T14:28:05.834Z,101835.60
2018-12-05T14:30:36.003Z,101832.15
2018-12-05T14:33:06.614Z,101824.50
2018-12-05T14:35:36.602Z,101826.23
2018-12-05T14:38:08.533Z,101835.67
2018-12-05T14:40:38.702Z,101832.64
2018-12-05T14:43:08.660Z,101821.55
2018-12-05T14:45:38.666Z,101816.02
2018-12-05T14:48:09.622Z,101816.88
2018-12-05T14:50:41.638Z,101826.28
2018-12-05T14:53:12.114Z,101825.45
2018-12-05T14:55:43.569Z,101818.18
2018-12-05T14:58:14.323Z,101812.22
2018-12-05T15:00:45.546Z,101807.06
2018-12-05T15:03:16.296Z,101813.47
2018-12-05T15:05:47.545Z,101818.14
2018-12-05T15:08:18.186Z,101811.70
2018-12-05T15:10:49.498Z,101812.55
2018-12-05T15:13:19.762Z,101812.95
2018-12-05T15:15:49.969Z,101806.51
2018-12-05T15:18:20.512Z,101804.34
2018-12-05T15:20:51.148Z,101805.14
2018-12-05T15:23:21.354Z,101797.91
2018-12-05T15:25:52.328Z,101792.78
2018-12-05T15:28:23.205Z,101781.70
2018-12-05T15:30:54.935Z,101776.54
2018-12-05T15:33:25.036Z,101784.22
2018-12-05T15:35:55.899Z,101783.33
2018-12-05T15:38:27.156Z,101777.33
2018-12-05T15:40:57.969Z,101775.15
2018-12-05T15:43:28.606Z,101776.41
2018-12-05T15:45:58.623Z,101763.58
2018-12-05T15:48:28.735Z,101757.62
2018-12-05T15:50:58.666Z,101745.27
2018-12-05T15:53:28.594Z,101740.25
2018-12-05T15:55:59.358Z,101733.89
2018-12-05T15:58:31.240Z,101721.13
2018-12-05T16:01:01.383Z,101716.03
2018-12-05T16:03:32.458Z,101715.59
2018-12-05T16:06:03.091Z,101710.90
2018-12-05T16:08:33.145Z,101709.21
2018-12-05T16:11:04.444Z,101698.09
2018-12-05T16:13:34.608Z,101689.99
2018-12-05T16:16:08.106Z,101692.55
2018-12-05T16:18:39.561Z,101687.86
2018-12-05T16:21:10.074Z,101684.03
2018-12-05T16:23:40.156Z,101669.06
2018-12-05T16:26:11.173Z,101662.26
2018-12-05T16:28:43.328Z,101663.94
2018-12-05T16:31:14.050Z,101655.39
2018-12-05T16:33:44.630Z,101651.13
2018-12-05T16:36:15.384Z,101652.41
2018-12-05T16:38:46.058Z,101652.41
2018-12-05T16:41:17.559Z,101646.02
2018-12-05T16:43:48.868Z,101646.45
2018-12-05T16:46:19.707Z,101641.33
2018-12-05T16:48:50.243Z,101642.63
2018-12-05T16:51:20.440Z,101630.65
2018-12-05T16:53:52.018Z,101626.81
2018-12-05T16:56:23.071Z,101627.25
2018-12-05T16:58:53.724Z,101619.55
2018-12-05T17:01:24.500Z,101620.42
2018-12-05T17:03:55.282Z,101608.86
2018-12-05T17:06:25.380Z,101611.86
2018-12-05T17:08:57.806Z,101609.28
2018-12-05T17:11:27.923Z,101607.58
2018-12-05T17:13:58.027Z,101593.05
2018-12-05T17:16:28.879Z,101590.94
2018-12-05T17:18:59.802Z,101587.95
2018-12-05T17:21:31.283Z,101586.23
2018-12-05T17:24:02.110Z,101589.64
2018-12-05T17:26:32.144Z,101587.94
2018-12-05T17:29:02.095Z,101574.26
2018-12-05T17:31:32.735Z,101571.69
2018-12-05T17:34:03.537Z,101564.02
2018-12-05T17:36:33.619Z,101568.28
2018-12-05T17:39:08.125Z,101566.57
2018-12-05T17:41:39.707Z,101558.86
2018-12-05T17:44:09.764Z,101558.44
2018-12-05T17:46:40.605Z,101560.58
2018-12-05T17:49:10.653Z,101557.14
2018-12-05T17:51:40.724Z,101557.16
2018-12-05T17:54:14.747Z,101562.29
2018-12-05T17:56:44.376Z,101548.19
2018-12-05T17:59:14.702Z,101550.73
2018-12-05T18:01:45.321Z,101543.03
2018-12-05T18:04:15.281Z,101540.02
2018-12-05T18:06:45.862Z,101528.48
2018-12-05T18:09:16.531Z,101543.89
2018-12-05T18:11:47.201Z,101527.20
2018-12-05T18:14:17.796Z,101531.89
2018-12-05T18:16:47.783Z,101531.49
2018-12-05T18:19:18.494Z,101531.06
2018-12-05T18:21:49.247Z,101520.34
2018-12-05T18:24:19.934Z,101519.97
2018-12-05T18:26:50.247Z,101515.66
2018-12-05T18:29:20.382Z,101512.63
2018-12-05T18:31:51.814Z,101496.34
2018-12-05T18:34:22.471Z,101497.68
2018-12-05T18:36:53.163Z,101494.70
2018-12-05T18:39:23.974Z,101491.30
2018-12-05T18:41:54.788Z,101481.84
2018-12-05T18:44:24.830Z,101488.30
2018-12-05T18:46:54.874Z,101479.76
2018-12-05T18:49:25.005Z,101482.73
2018-12-05T18:51:57.225Z,101479.75
2018-12-05T18:54:28.786Z,101475.06
2018-12-05T18:56:58.806Z,101467.79
2018-12-05T18:59:29.083Z,101469.92
2018-12-05T19:01:59.581Z,101459.26
2018-12-05T19:04:30.362Z,101461.00
2018-12-05T19:07:01.140Z,101462.29
2018-12-05T19:09:31.984Z,101449.83
2018-12-05T19:12:03.619Z,101439.61
2018-12-05T19:14:38.922Z,101431.91
2018-12-05T19:17:09.567Z,101427.21
2018-12-05T19:19:40.386Z,101427.64
2018-12-05T19:22:12.627Z,101428.91
2018-12-05T19:24:43.887Z,101425.86
2018-12-05T19:27:13.974Z,101423.30
2018-12-05T19:29:44.739Z,101415.20
2018-12-05T19:32:14.752Z,101409.21
2018-12-05T19:34:46.956Z,101409.25
2018-12-05T19:37:18.284Z,101408.42
2018-12-05T19:39:48.438Z,101401.58
2018-12-05T19:42:18.469Z,101402.03
2018-12-05T19:44:49.270Z,101402.86
2018-12-05T19:47:20.726Z,101399.45
2018-12-05T19:49:51.665Z,101396.44
2018-12-05T19:52:22.299Z,101390.91
2018-12-05T19:54:53.035Z,101391.38
2018-12-05T19:57:24.899Z,101395.63
2018-12-05T19:59:56.753Z,101393.04
2018-12-05T20:02:26.948Z,101382.76
2018-12-05T20:04:57.783Z,101382.38
2018-12-05T20:07:27.826Z,101369.98
2018-12-05T20:09:57.972Z,101363.61
2018-12-05T20:12:29.473Z,101365.77
2018-12-05T20:14:59.819Z,101361.42
2018-12-05T20:17:30.957Z,101367.42
2018-12-05T20:20:01.202Z,101355.91
2018-12-05T20:22:33.574Z,101350.31
2018-12-05T20:25:03.775Z,101349.44
2018-12-05T20:27:33.910Z,101339.17
2018-12-05T20:30:05.463Z,101344.67
2018-12-05T20:32:35.638Z,101347.65
2018-12-05T20:35:06.534Z,101340.83
2018-12-05T20:37:36.541Z,101339.81
2018-12-05T20:40:07.531Z,101329.59
2018-12-05T20:42:56.673Z,101320.25
2018-12-05T20:45:27.348Z,101324.08
2018-12-05T20:47:58.688Z,101315.55
2018-12-05T20:50:28.714Z,101309.48
2018-12-05T20:52:59.455Z,101307.78
2018-12-05T20:55:29.538Z,101303.95
2018-12-05T20:58:00.717Z,101305.20
2018-12-05T21:00:31.278Z,101296.05
2018-12-05T21:03:02.457Z,101292.81
2018-12-05T21:05:33.354Z,101295.84
2018-12-05T21:08:04.550Z,101296.24
2018-12-05T21:10:35.942Z,101288.55
2018-12-05T21:13:07.498Z,101296.13
2018-12-05T21:15:38.579Z,101288.88
2018-12-05T21:18:09.266Z,101290.30
2018-12-05T21:20:40.519Z,101285.13
2018-12-05T21:23:10.653Z,101277.44
2018-12-05T21:25:40.829Z,101276.70
2018-12-05T21:28:11.883Z,101275.84
2018-12-05T21:30:42.682Z,101276.31
2018-12-05T21:33:13.584Z,101279.98
2018-12-05T21:35:43.555Z,101270.95
2018-12-05T21:38:13.590Z,101270.64
2018-12-05T21:40:44.928Z,101274.55
2018-12-05T21:43:16.454Z,101259.19
2018-12-05T21:45:47.469Z,101261.27
2018-12-05T21:48:18.338Z,101260.36
2018-12-05T21:50:49.506Z,101262.09
2018-12-05T21:53:19.559Z,101257.45
2018-12-05T21:55:50.501Z,101253.11
2018-12-05T21:58:21.071Z,101251.83
2018-12-05T22:00:51.273Z,101248.89
2018-12-05T22:03:22.124Z,101248.11
2018-12-05T22:05:52.752Z,101247.64
2018-12-05T22:08:24.340Z,101246.34
2018-12-05T22:10:54.483Z,101245.10
2018-12-05T22:13:24.593Z,101247.15
2018-12-05T22:15:54.751Z,101247.58
2018-12-05T22:18:25.693Z,101245.01
2018-12-05T22:20:56.904Z,101242.03
2018-12-05T22:23:27.752Z,101243.39
2018-12-05T22:25:58.559Z,101245.94
2018-12-05T22:28:30.221Z,101238.23
2018-12-05T22:31:02.307Z,101242.42
2018-12-05T22:33:32.542Z,101243.36
2018-12-05T22:36:04.093Z,101243.75
2018-12-05T22:38:35.009Z,101235.22
2018-12-05T22:41:06.388Z,101232.24
2018-12-05T22:43:37.718Z,101229.23
2018-12-05T22:46:09.991Z,101227.13
2018-12-05T22:48:41.234Z,101223.50
2018-12-05T22:51:11.299Z,101223.21
2018-12-05T22:53:41.303Z,101222.36
2018-12-05T22:56:11.353Z,101224.08
2018-12-05T22:58:41.413Z,101222.83
2018-12-05T23:01:11.865Z,101221.08
2018-12-05T23:03:42.516Z,101221.79
2018-12-05T23:06:13.643Z,101221.91
2018-12-05T23:08:45.264Z,101219.65
2018-12-05T23:11:16.141Z,101211.73
2018-12-05T23:13:46.477Z,101210.49
2018-12-05T23:16:17.735Z,101200.31
2018-12-05T23:18:49.380Z,101199.83
2018-12-05T23:21:20.254Z,101190.52
2018-12-05T23:23:50.306Z,101192.12
2018-12-05T23:26:20.859Z,101191.36
2018-12-05T23:28:52.244Z,101185.05
2018-12-05T23:31:22.762Z,101183.30
2018-12-05T23:33:53.387Z,101179.92
2018-12-05T23:36:23.555Z,101168.75
2018-12-05T23:38:54.785Z,101170.45
2018-12-05T23:41:26.234Z,101167.92
2018-12-05T23:43:57.694Z,101167.06
2018-12-05T23:46:27.703Z,101155.09
2018-12-05T23:48:59.133Z,101152.05
2018-12-05T23:51:30.417Z,101146.91
2018-12-05T23:54:01.279Z,101139.68
2018-12-05T23:56:31.292Z,101143.56
2018-12-05T23:59:01.636Z,101143.02
